Darstellungsparameter: Aktuell verwendete Einstellungen:
Skalierung der Graphiken ... ?
xyx+y,   Skalierungsfaktor:      Skalierung: Modus: x, Faktor: 1
Darstellungszeitraum ... ?
Vom - - bis: - -   Zeitraum: 02.12.2011 - 02.12.2011
Min/Max/Avg-Anzeige ... ?
Zeige MMA aktuell
Zeige MMA Monat
Zeige MMA alles
Zeige --A aktuell
Zeige --A Monat
Zeige --A alles
Keine MMA-Anzeige
MMA:
Average (ber die Originaldaten)
MMA-Basis: 02.12.2011 - 02.12.2011
Quicknavigation für Darstellung... ?
Tage:      1T, 2T, 3T, 5T -1T -2T -3T -5T +1T +2T +3T +5T
Wochen: 1W, 2W, 3W -1W -2W -3W +1W +2W +3W
Monate: 1M, 3M, 6M -1M -3M -6M +1M +3M +6M
Jahre:    1J, 3J, 5J, 10J -1J -3J -5J -10J +1J +3J +5J +10J
Nutze für die Darstellung ... ?
Originaldaten oder Mittelwerte auf ...
Stundenbasis Tagesbasis Wochenbasis
Monatsbasis Jahresbasis      Datenbasis: Original-Daten
Darstellen als:
Statistik (Auto) Statistik J:M      Darstellung:
Zur Graphik,    zurück zur Übersicht aller Sensoren.
 
Tabellarische Datenbersicht: ?
 
Sensor: Nr:Datum:Temp:Abs-Feuchte:Windchill:Wind:
Aussen-T/F 1 02-12-2011 00:00:01 10.6 C 8.3 g/m*3 10.6 C 0 km/h
2 02-12-2011 00:12:01 11.2 C 8.11 g/m*3 11.2 C 0 km/h
3 02-12-2011 00:24:01 10.9 C 7.76 g/m*3 10.9 C 0 km/h
4 02-12-2011 00:36:01 10.5 C 7.66 g/m*3 10.5 C 0 km/h
5 02-12-2011 00:48:01 10.2 C 7.61 g/m*3 10.2 C 0 km/h
6 02-12-2011 01:00:01 10 C 7.61 g/m*3 10 C 0 km/h
7 02-12-2011 01:12:01 10 C 7.71 g/m*3 10 C 0 km/h
8 02-12-2011 01:24:02 9.8 C 7.79 g/m*3 9.8 C 0 km/h
9 02-12-2011 01:36:01 9.5 C 7.65 g/m*3 9.5 C 0 km/h
10 02-12-2011 01:48:03 9.5 C 7.74 g/m*3 9.5 C 0 km/h
11 02-12-2011 02:00:03 9.5 C 7.74 g/m*3 9.5 C 0 km/h
12 02-12-2011 02:12:02 8.8 C 7.4 g/m*3 8.8 C 0 km/h
13 02-12-2011 02:24:02 8.6 C 7.39 g/m*3 8.6 C 0 km/h
14 02-12-2011 02:36:02 9.5 C 7.65 g/m*3 9.5 C 0 km/h
15 02-12-2011 02:49:04 9.8 C 7.42 g/m*3 9.8 C 0 km/h
16 02-12-2011 03:01:04 9.6 C 7.15 g/m*3 9.6 C 0 km/h
17 02-12-2011 03:13:03 9.2 C 6.88 g/m*3 9.2 C 0 km/h
18 02-12-2011 03:25:03 10 C 6.58 g/m*3 10 C 0 km/h
19 02-12-2011 03:37:03 9.7 C 6.45 g/m*3 9.7 C 0 km/h
20 02-12-2011 03:49:03 8.8 C 6.35 g/m*3 8.8 C 0 km/h
21 02-12-2011 04:01:02 9.2 C 6.34 g/m*3 9.2 C 0 km/h
22 02-12-2011 04:13:02 11.2 C 6.69 g/m*3 11.2 C 0 km/h
23 02-12-2011 04:25:02 10.3 C 6.03 g/m*3 10.3 C 0 km/h
24 02-12-2011 04:37:02 10.4 C 6.17 g/m*3 10.4 C 0 km/h
25 02-12-2011 04:49:02 10.1 C 6.05 g/m*3 10.1 C 0 km/h
Sensor: Nr:Datum:Temp:Abs-Feuchte:Windchill:Wind:
Aussen-T/F 26 02-12-2011 05:01:02 10 C 6.01 g/m*3 10 C 0 km/h
27 02-12-2011 05:13:02 10.1 C 6.05 g/m*3 10.1 C 0 km/h
28 02-12-2011 05:25:02 9.3 C 6.2 g/m*3 9.3 C 0 km/h
29 02-12-2011 05:37:02 10.4 C 6.46 g/m*3 10.4 C 0 km/h
30 02-12-2011 05:49:02 11.9 C 6.46 g/m*3 11.9 C 0 km/h
31 02-12-2011 06:01:02 12.4 C 6.23 g/m*3 12.4 C 0 km/h
32 02-12-2011 06:13:02 12.3 C 6.19 g/m*3 12.3 C 0 km/h
33 02-12-2011 06:25:01 12.5 C 6.27 g/m*3 12.5 C 0 km/h
34 02-12-2011 06:37:02 12.1 C 6.22 g/m*3 12.1 C 0 km/h
35 02-12-2011 06:49:02 12.2 C 6.26 g/m*3 12.2 C 0 km/h
36 02-12-2011 07:01:02 12 C 6.5 g/m*3 12 C 0 km/h
37 02-12-2011 07:13:02 11.9 C 6.67 g/m*3 11.9 C 0 km/h
38 02-12-2011 07:25:01 11.8 C 6.74 g/m*3 11.8 C 0 km/h
39 02-12-2011 07:37:02 11.7 C 6.69 g/m*3 11.7 C 0 km/h
40 02-12-2011 07:49:02 11.7 C 6.69 g/m*3 11.7 C 0 km/h
41 02-12-2011 08:01:02 11.7 C 6.59 g/m*3 11.7 C 0 km/h
42 02-12-2011 08:13:02 11.7 C 6.59 g/m*3 11.7 C 0 km/h
43 02-12-2011 08:25:01 11.8 C 6.63 g/m*3 11.8 C 0 km/h
44 02-12-2011 08:37:02 11.7 C 6.59 g/m*3 11.7 C 0 km/h
45 02-12-2011 08:49:01 11.8 C 6.63 g/m*3 11.8 C 0 km/h
46 02-12-2011 09:01:02 11.8 C 6.63 g/m*3 11.8 C 0 km/h
47 02-12-2011 09:13:02 11.9 C 6.67 g/m*3 11.9 C 0 km/h
48 02-12-2011 09:25:02 11.9 C 6.57 g/m*3 11.9 C 0 km/h
49 02-12-2011 09:37:01 12 C 6.5 g/m*3 12 C 0 km/h
50 02-12-2011 09:49:02 12 C 6.39 g/m*3 12 C 0 km/h
Sensor: Nr:Datum:Temp:Abs-Feuchte:Windchill:Wind:
Aussen-T/F 51 02-12-2011 10:01:01 12 C 6.39 g/m*3 12 C 0 km/h
52 02-12-2011 10:13:01 12 C 6.5 g/m*3 12 C 0 km/h
53 02-12-2011 10:25:02 12 C 6.5 g/m*3 12 C 0 km/h
54 02-12-2011 10:37:01 9.8 C 5.85 g/m*3 9.8 C 0 km/h
55 02-12-2011 10:49:02 8 C 6.04 g/m*3 8 C 0 km/h
56 02-12-2011 11:01:02 7.2 C 6.28 g/m*3 7.2 C 0 km/h
57 02-12-2011 11:13:02 7 C 6.35 g/m*3 7 C 0 km/h
58 02-12-2011 11:25:02 7 C 6.28 g/m*3 7 C 0 km/h
59 02-12-2011 11:37:02 6.9 C 6.24 g/m*3 6.9 C 0 km/h
60 02-12-2011 11:49:01 7 C 6.12 g/m*3 7 C 0 km/h
61 02-12-2011 12:01:02 7.3 C 6.08 g/m*3 7.3 C 0 km/h
62 02-12-2011 12:13:02 7.5 C 6.08 g/m*3 7.5 C 0 km/h
63 02-12-2011 12:25:01 7.5 C 6 g/m*3 7.5 C 0 km/h
64 02-12-2011 12:37:01 7.3 C 5.93 g/m*3 7.3 C 0 km/h
65 02-12-2011 12:49:01 7.3 C 6 g/m*3 7.3 C 0 km/h
66 02-12-2011 13:01:02 7.5 C 5.92 g/m*3 7.5 C 0 km/h
67 02-12-2011 13:13:02 7.7 C 5.92 g/m*3 7.7 C 0 km/h
68 02-12-2011 13:25:01 7.8 C 5.79 g/m*3 7.8 C 0 km/h
69 02-12-2011 13:37:01 7.6 C 5.72 g/m*3 7.6 C 0 km/h
70 02-12-2011 13:49:01 7.6 C 5.96 g/m*3 7.6 C 0 km/h
71 02-12-2011 14:01:02 7.5 C 5.76 g/m*3 7.5 C 0 km/h
72 02-12-2011 14:13:02 7.5 C 5.6 g/m*3 7.5 C 0 km/h
73 02-12-2011 14:25:02 7.3 C 5.61 g/m*3 7.3 C 0 km/h
74 02-12-2011 14:37:01 6.7 C 5.47 g/m*3 6.7 C 0 km/h
75 02-12-2011 14:49:02 6.4 C 5.51 g/m*3 6.4 C 0 km/h
Sensor: Nr:Datum:Temp:Abs-Feuchte:Windchill:Wind:
Aussen-T/F 76 02-12-2011 15:01:01 6.4 C 5.66 g/m*3 6.4 C 0 km/h
77 02-12-2011 15:13:01 6.2 C 5.74 g/m*3 6.2 C 0 km/h
78 02-12-2011 15:25:02 5.9 C 5.84 g/m*3 5.9 C 0 km/h
79 02-12-2011 15:37:01 6 C 5.81 g/m*3 6 C 0 km/h
80 02-12-2011 15:49:02 5.7 C 5.84 g/m*3 5.7 C 0 km/h
81 02-12-2011 16:01:02 5.5 C 5.83 g/m*3 5.5 C 0 km/h
82 02-12-2011 16:13:02 4.9 C 5.67 g/m*3 4.9 C 0 km/h
83 02-12-2011 16:25:02 4.7 C 5.66 g/m*3 4.7 C 0 km/h
84 02-12-2011 16:37:03 4.3 C 5.58 g/m*3 4.3 C 0 km/h
85 02-12-2011 16:49:02 4.5 C 5.72 g/m*3 4.5 C 0 km/h
86 02-12-2011 17:01:02 4.2 C 5.61 g/m*3 4.2 C 0 km/h
87 02-12-2011 17:13:02 3.6 C 5.45 g/m*3 3.6 C 0 km/h
88 02-12-2011 17:25:02 3 C 5.23 g/m*3 3 C 0 km/h
89 02-12-2011 17:37:02 2.8 C 5.22 g/m*3 2.8 C 0 km/h
90 02-12-2011 17:49:02 2.6 C 5.15 g/m*3 2.6 C 0 km/h
91 02-12-2011 18:01:02 2.1 C 4.98 g/m*3 2.1 C 0 km/h
92 02-12-2011 18:13:02 2.5 C 5.17 g/m*3 2.5 C 0 km/h
93 02-12-2011 18:25:02 2.1 C 5.04 g/m*3 2.1 C 0 km/h
94 02-12-2011 18:37:02 2.1 C 5.04 g/m*3 2.1 C 0 km/h
95 02-12-2011 18:49:02 2 C 5.06 g/m*3 2 C 0 km/h
96 02-12-2011 19:01:02 1.8 C 4.99 g/m*3 1.8 C 0 km/h
97 02-12-2011 19:13:02 1.7 C 4.95 g/m*3 1.7 C 0 km/h
98 02-12-2011 19:25:02 1.8 C 5.04 g/m*3 1.8 C 0 km/h
99 02-12-2011 19:37:02 1.5 C 4.94 g/m*3 1.5 C 0 km/h
100 02-12-2011 19:49:02 1.2 C 4.84 g/m*3 1.2 C 0 km/h
Sensor: Nr:Datum:Temp:Abs-Feuchte:Windchill:Wind:
Aussen-T/F 101 02-12-2011 20:01:02 0.6 C 4.65 g/m*3 0.6 C 0 km/h
102 02-12-2011 20:13:02 0.9 C 4.74 g/m*3 0.9 C 0 km/h
103 02-12-2011 20:25:03 0.6 C 4.65 g/m*3 0.6 C 0 km/h
104 02-12-2011 20:37:02 0.4 C 4.58 g/m*3 0.4 C 0 km/h
105 02-12-2011 20:49:02 1.8 C 5.04 g/m*3 1.8 C 0 km/h
106 02-12-2011 21:01:02 1.7 C 5.01 g/m*3 1.7 C 0 km/h
107 02-12-2011 21:13:02 1.8 C 5.1 g/m*3 1.8 C 0 km/h
108 02-12-2011 21:25:02 1.8 C 5.1 g/m*3 1.8 C 0 km/h
109 02-12-2011 21:37:02 1.8 C 5.1 g/m*3 1.8 C 0 km/h
110 02-12-2011 21:49:02 1.8 C 5.1 g/m*3 1.8 C 0 km/h
111 02-12-2011 22:01:01 2.3 C 5.22 g/m*3 2.3 C 0 km/h
112 02-12-2011 22:13:01 2 C 5.11 g/m*3 2 C 0 km/h
113 02-12-2011 22:25:02 2 C 5.11 g/m*3 2 C 0 km/h
114 02-12-2011 22:37:02 2 C 5.11 g/m*3 2 C 0 km/h
115 02-12-2011 22:49:01 1.7 C 5.01 g/m*3 1.7 C 0 km/h
116 02-12-2011 23:01:02 1.6 C 4.97 g/m*3 1.6 C 0 km/h
117 02-12-2011 23:13:02 1.6 C 4.97 g/m*3 1.6 C 0 km/h
118 02-12-2011 23:25:01 1.5 C 4.94 g/m*3 1.5 C 0 km/h
119 02-12-2011 23:37:02 1 C 4.78 g/m*3 1 C 0 km/h
120 02-12-2011 23:49:02 0.3 C 4.55 g/m*3 0.3 C 0 km/h

Legende:
   Min
   Max


Maximal/Minimal-Werte vom 02.12.2011 - 02.12.2011

Sensor Min Max Avg
Temp
(Aussen-T/F)
0.3 °C
02-12-2011  23:49:02
12.5 °C
02-12-2011  06:25:01
7.13 °C
Abs-Feuchte
(Aussen-T/F)
4.55 g/m*3
02-12-2011  23:49:02
8.3 g/m*3
02-12-2011  00:00:01
5.99 g/m*3
Windchill
(Aussen-T/F)
0.3 C
02-12-2011  23:49:02
12.5 C
02-12-2011  06:25:01
7.07 C

Die Daten stammen von einer Davis Vantage Pro 2 Wetter-Station und werden unter Linux mit der Software wview2wettercgi und aufbereitet. Alle Angaben erfolgen ohne Gewähr für ihre Vollständigkeit oder Richtigkeit.
Kontakt: Rainer Krienke krienke@uni-koblenz.de . Meine Webseiten an der Uni Koblenz oder privat.
Version: $Revision: 0.78 $